Time;durP1;ratioP1;P1;durP2;ratioP2;P2;SDS_P1;SDS_P2;PMS_P1;PMS_P2;Temp;Humidity;BMP_temperature;BMP_pressure;BME280_temperature;BME280_humidity;BME280_pressure;Samples;Min_cycle;Max_cycle;Signal;HPM_P1;HPM_P2
2023/07/19 00:01:21;;;;;;;8.08;7.28;;;;;;;13.69;58.63;100119.58;1745241;81;25457;-51
2023/07/19 00:03:48;;;;;;;14.43;13.08;;;;;;;13.66;59.63;100119.70;1745384;82;25706;-53
2023/07/19 00:06:15;;;;;;;53.87;50.45;;;;;;;13.68;60.20;100125.59;1749081;80;25326;-52
2023/07/19 00:08:42;;;;;;;77.27;72.37;;;;;;;13.68;60.79;100110.64;1745260;81;27258;-51
2023/07/19 00:11:10;;;;;;;6.12;3.80;;;;;;;13.69;60.51;100112.79;1745172;82;25293;-51
2023/07/19 00:13:37;;;;;;;67.70;63.38;;;;;;;13.71;60.60;100124.93;1745258;82;25307;-52
2023/07/19 00:16:05;;;;;;;78.92;73.85;;;;;;;13.72;60.84;100113.48;1745218;82;25609;-51
2023/07/19 00:18:34;;;;;;;29.18;27.13;;;;;;;13.72;60.65;100106.12;1745325;82;25352;-52
2023/07/19 00:21:01;;;;;;;77.95;73.05;;;;;;;13.71;60.78;100104.55;1745248;82;27131;-51
2023/07/19 00:23:28;;;;;;;78.65;73.75;;;;;;;13.72;60.94;100103.97;1745222;82;25519;-51
2023/07/19 00:25:55;;;;;;;9.25;8.25;;;;;;;13.72;61.12;100101.25;1745248;82;25295;-53
2023/07/19 00:28:22;;;;;;;4.78;2.90;;;;;;;13.72;61.18;100106.12;1745213;81;25644;-52
2023/07/19 00:30:49;;;;;;;6.78;2.67;;;;;;;13.72;61.24;100099.32;1745304;82;25319;-52
2023/07/19 00:33:17;;;;;;;6.12;3.15;;;;;;;13.72;61.39;100098.53;1745247;82;27205;-55
2023/07/19 00:35:44;;;;;;;5.72;3.17;;;;;;;13.73;61.61;100095.48;1745163;81;25322;-53
2023/07/19 00:38:12;;;;;;;10.48;3.80;;;;;;;13.73;61.36;100096.06;1745242;81;25315;-51
2023/07/19 00:40:40;;;;;;;7.37;5.08;;;;;;;13.71;61.40;100097.75;1745272;82;25619;-52
2023/07/19 00:43:10;;;;;;;7.90;7.20;;;;;;;13.70;61.49;100097.52;1745293;82;25515;-52
2023/07/19 00:45:50;;;;;;;77.12;72.20;;;;;;;13.69;61.51;100092.41;1744759;82;27280;-52
2023/07/19 00:48:19;;;;;;;77.77;72.90;;;;;;;13.66;61.33;100089.80;1724006;82;25450;-51
2023/07/19 00:50:50;;;;;;;80.03;74.80;;;;;;;13.64;61.33;100091.50;1745403;82;25319;-52
2023/07/19 00:53:20;;;;;;;79.20;74.10;;;;;;;13.60;61.37;100086.52;1745265;82;26222;-51
2023/07/19 00:55:50;;;;;;;28.87;26.68;;;;;;;13.59;61.57;100090.34;1745419;81;25378;-51
2023/07/19 00:58:21;;;;;;;5.60;3.20;;;;;;;13.55;61.31;100084.00;1745291;81;27260;-51
2023/07/19 01:00:52;;;;;;;77.27;72.32;;;;;;;13.51;61.18;100083.64;1745288;81;25525;-54
2023/07/19 01:03:20;;;;;;;78.33;73.33;;;;;;;13.47;61.14;100091.66;1745283;82;25479;-51
2023/07/19 01:05:50;;;;;;;76.85;71.97;;;;;;;13.41;61.17;100091.05;1745373;82;25631;-51
2023/07/19 01:08:20;;;;;;;78.40;73.42;;;;;;;13.36;61.27;100083.68;1745297;81;25543;-51
2023/07/19 01:10:50;;;;;;;79.65;74.75;;;;;;;13.29;61.15;100084.75;1745388;82;27188;-51
2023/07/19 01:13:17;;;;;;;53.58;50.05;;;;;;;13.22;61.16;100079.84;1745312;81;25554;-51
2023/07/19 01:15:44;;;;;;;11.20;10.15;;;;;;;13.17;61.60;100078.12;1745273;81;25512;-50
2023/07/19 01:18:12;;;;;;;7.92;4.20;;;;;;;13.14;61.72;100079.34;1745197;82;25593;-53
2023/07/19 01:20:41;;;;;;;5.92;4.03;;;;;;;13.08;61.76;100078.19;1745265;81;25500;-51
2023/07/19 01:23:09;;;;;;;6.95;4.85;;;;;;;13.05;61.82;100073.41;1745345;81;27265;-51
2023/07/19 01:25:37;;;;;;;9.38;8.00;;;;;;;13.01;62.00;100073.06;1745111;82;25732;-51
2023/07/19 01:28:06;;;;;;;16.75;14.93;;;;;;;12.97;62.50;100070.77;1745175;82;25456;-50
2023/07/19 01:30:35;;;;;;;6.37;5.75;;;;;;;12.95;62.99;100069.73;1745355;82;25708;-52
2023/07/19 01:33:03;;;;;;;8.03;5.30;;;;;;;12.92;62.87;100062.81;1745325;82;25289;-52
2023/07/19 01:35:30;;;;;;;6.95;4.45;;;;;;;12.88;62.71;100066.19;1745205;82;27233;-52
2023/07/19 01:37:57;;;;;;;6.37;5.28;;;;;;;12.84;62.80;100063.91;1745106;82;25529;-52
2023/07/19 01:40:25;;;;;;;6.58;5.72;;;;;;;12.83;63.25;100066.95;1745182;82;25359;-50
2023/07/19 01:42:52;;;;;;;8.55;7.75;;;;;;;12.79;63.28;100064.10;1745153;82;26378;-51
2023/07/19 01:45:20;;;;;;;9.18;6.72;;;;;;;12.77;63.28;100069.61;1744368;82;25513;-50
2023/07/19 01:47:47;;;;;;;17.02;15.50;;;;;;;12.71;63.31;100068.45;1742103;82;27220;-50
2023/07/19 01:50:16;;;;;;;7.92;6.75;;;;;;;12.67;63.48;100065.38;1742079;82;25470;-52
2023/07/19 01:52:43;;;;;;;9.53;5.53;;;;;;;12.63;63.60;100067.14;1742474;82;25520;-50
2023/07/19 01:55:10;;;;;;;5.37;3.47;;;;;;;12.61;63.81;100075.61;1742200;82;26254;-51
2023/07/19 01:57:38;;;;;;;8.35;3.77;;;;;;;12.60;64.04;100080.00;1742194;82;25497;-51
2023/07/19 02:00:08;;;;;;;7.45;5.53;;;;;;;12.58;64.27;100079.00;1742200;82;27219;-51
2023/07/19 02:02:36;;;;;;;12.03;8.78;;;;;;;12.57;64.70;100076.05;1742094;82;25528;-55
2023/07/19 02:05:06;;;;;;;5.97;4.03;;;;;;;12.55;64.94;100080.19;1742308;82;25494;-50
2023/07/19 02:07:34;;;;;;;14.65;13.53;;;;;;;12.50;64.62;100078.48;1742197;82;25658;-53
2023/07/19 02:10:04;;;;;;;5.22;3.33;;;;;;;12.48;64.72;100076.09;1742218;82;25051;-51
2023/07/19 02:12:31;;;;;;;18.85;17.40;;;;;;;12.43;64.71;100073.56;1742198;82;27163;-51
2023/07/19 02:14:58;;;;;;;8.50;7.45;;;;;;;12.40;64.89;100076.92;1742057;82;27192;-51
2023/07/19 02:17:25;;;;;;;7.95;3.65;;;;;;;12.35;65.03;100072.25;1742256;82;25549;-51
2023/07/19 02:19:53;;;;;;;10.53;9.58;;;;;;;12.29;65.05;100066.19;1742228;82;26359;-51
2023/07/19 02:22:20;;;;;;;45.67;42.67;;;;;;;12.26;65.39;100064.13;1742231;82;25482;-51
2023/07/19 02:24:47;;;;;;;77.75;72.62;;;;;;;12.23;65.39;100064.80;1742158;82;29504;-51
2023/07/19 02:27:14;;;;;;;6.22;3.50;;;;;;;12.18;65.45;100064.41;1742120;82;25664;-50
2023/07/19 02:29:41;;;;;;;72.05;67.35;;;;;;;12.15;65.83;100070.48;1742161;82;25304;-50
2023/07/19 02:32:08;;;;;;;5.22;3.52;;;;;;;12.10;65.88;100065.23;1742120;82;25702;-51
2023/07/19 02:34:36;;;;;;;7.97;3.87;;;;;;;12.08;66.36;100064.20;1742182;82;25453;-51
2023/07/19 02:37:06;;;;;;;6.45;3.70;;;;;;;12.02;66.20;100069.58;1742140;82;29325;-52
2023/07/19 02:39:33;;;;;;;10.58;3.60;;;;;;;11.92;66.09;100069.36;1742075;82;25519;-51
2023/07/19 02:42:01;;;;;;;5.95;3.75;;;;;;;11.88;66.10;100071.08;1742113;82;25529;-51
2023/07/19 02:44:28;;;;;;;7.83;5.90;;;;;;;11.84;66.21;100072.06;1742236;82;25621;-51
2023/07/19 02:46:55;;;;;;;8.48;5.78;;;;;;;11.80;66.46;100062.97;1744762;82;25537;-51
2023/07/19 02:49:24;;;;;;;7.22;3.75;;;;;;;11.76;66.84;100062.28;1745309;81;29419;-53
2023/07/19 02:51:51;;;;;;;7.12;5.35;;;;;;;11.75;66.96;100066.67;1745358;82;25473;-52
2023/07/19 02:54:18;;;;;;;12.30;11.12;;;;;;;11.72;67.23;100065.95;1745355;82;25595;-50
2023/07/19 02:56:46;;;;;;;9.00;4.15;;;;;;;11.70;67.46;100060.85;1745347;81;25537;-51
2023/07/19 02:59:13;;;;;;;7.53;3.80;;;;;;;11.70;67.49;100068.19;1745328;82;25277;-51
2023/07/19 03:01:41;;;;;;;9.13;4.37;;;;;;;11.68;67.50;100064.45;1749140;80;27135;-52
2023/07/19 03:04:12;;;;;;;6.25;3.62;;;;;;;11.67;67.69;100058.78;1745247;82;25320;-51
2023/07/19 03:06:40;;;;;;;12.37;5.97;;;;;;;11.68;67.78;100056.32;1745291;82;25352;-50
2023/07/19 03:09:07;;;;;;;10.35;4.33;;;;;;;11.70;68.40;100053.30;1749024;80;25662;-51
2023/07/19 03:11:35;;;;;;;7.45;4.05;;;;;;;11.72;68.27;100059.18;1745305;82;25513;-50
2023/07/19 03:14:02;;;;;;;7.22;3.72;;;;;;;11.74;68.57;100061.00;1749060;80;27366;-51
2023/07/19 03:16:29;;;;;;;6.08;4.45;;;;;;;11.75;68.57;100054.48;1745201;82;25545;-51
2023/07/19 03:18:56;;;;;;;16.87;15.25;;;;;;;11.76;68.67;100056.87;1745279;82;25295;-51
2023/07/19 03:21:23;;;;;;;8.78;4.20;;;;;;;11.78;68.96;100057.34;1745226;82;25663;-50
2023/07/19 03:23:51;;;;;;;7.90;6.33;;;;;;;11.80;68.85;100046.71;1745345;81;25513;-50
2023/07/19 03:26:18;;;;;;;9.15;4.08;;;;;;;11.81;69.03;100049.10;1745338;82;27252;-50
2023/07/19 03:28:45;;;;;;;5.75;3.85;;;;;;;11.81;69.02;100051.03;1745206;82;25540;-54
2023/07/19 03:31:13;;;;;;;6.78;3.98;;;;;;;11.81;68.91;100050.45;1745326;82;25296;-54
2023/07/19 03:33:41;;;;;;;5.35;3.75;;;;;;;11.83;69.09;100048.22;1745317;82;27778;-51
2023/07/19 03:36:08;;;;;;;6.42;3.95;;;;;;;11.81;69.07;100045.04;1745281;82;25336;-50
2023/07/19 03:38:35;;;;;;;8.28;4.30;;;;;;;11.81;69.25;100036.13;1745301;82;27295;-50
2023/07/19 03:41:09;;;;;;;7.20;4.53;;;;;;;11.79;69.26;100043.22;1745184;81;25527;-52
2023/07/19 03:43:37;;;;;;;6.15;4.30;;;;;;;11.78;69.47;100042.97;1745346;82;25410;-51
2023/07/19 03:46:08;;;;;;;7.83;4.87;;;;;;;11.80;69.90;100043.47;1744190;82;25694;-52
2023/07/19 03:48:37;;;;;;;7.40;4.53;;;;;;;11.82;69.98;100041.22;1742202;82;25314;-53
2023/07/19 03:51:05;;;;;;;9.23;4.47;;;;;;;11.85;70.26;100043.29;1742219;82;27249;-52
2023/07/19 03:53:33;;;;;;;13.00;6.83;;;;;;;11.89;70.37;100046.94;1742053;82;25318;-55
2023/07/19 03:56:01;;;;;;;6.85;4.50;;;;;;;11.93;70.76;100038.41;1742195;82;25481;-55
2023/07/19 03:58:30;;;;;;;5.53;4.10;;;;;;;11.98;70.94;100042.87;1742135;82;25596;-55
2023/07/19 04:00:59;;;;;;;6.70;3.87;;;;;;;12.04;70.96;100042.15;1742287;82;25326;-54
2023/07/19 04:03:28;;;;;;;6.05;4.15;;;;;;;12.08;71.34;100039.80;1742259;82;27199;-51
2023/07/19 04:05:57;;;;;;;9.93;4.05;;;;;;;12.15;71.16;100042.01;1742157;82;25507;-51
2023/07/19 04:08:26;;;;;;;9.70;4.75;;;;;;;12.21;71.29;100044.78;1711818;82;25508;-51
2023/07/19 04:10:53;;;;;;;8.63;5.05;;;;;;;12.28;71.64;100042.92;1742056;82;25814;-50
2023/07/19 04:13:21;;;;;;;5.83;4.20;;;;;;;12.34;71.61;100037.53;1742131;82;25385;-52
2023/07/19 04:15:48;;;;;;;11.40;4.97;;;;;;;12.42;71.79;100037.27;1742073;82;29295;-53
2023/07/19 04:18:16;;;;;;;6.15;4.37;;;;;;;12.49;72.17;100039.69;1742045;82;25511;-51
2023/07/19 04:20:44;;;;;;;6.90;4.08;;;;;;;12.58;72.08;100039.66;1742073;82;25291;-54
2023/07/19 04:23:13;;;;;;;6.03;3.72;;;;;;;12.67;72.31;100040.39;1742086;82;27835;-53
2023/07/19 04:25:41;;;;;;;8.23;4.35;;;;;;;12.77;72.70;100027.00;1742227;82;25378;-50
2023/07/19 04:28:08;;;;;;;9.00;6.40;;;;;;;12.87;72.76;100024.44;1743845;82;27640;-52
2023/07/19 04:30:35;;;;;;;32.85;30.57;;;;;;;12.96;72.91;100023.83;1741977;82;25320;-51
2023/07/19 04:33:04;;;;;;;81.85;76.35;;;;;;;13.06;73.02;100024.00;1742079;82;25445;-51
2023/07/19 04:35:32;;;;;;;82.02;76.12;;;;;;;13.17;73.08;100018.38;1742198;82;28897;-51
2023/07/19 04:38:00;;;;;;;80.83;75.65;;;;;;;13.29;73.34;100018.20;1742103;82;25503;-50
2023/07/19 04:40:27;;;;;;;78.87;73.62;;;;;;;13.40;73.46;100021.56;1739801;82;27073;-51
2023/07/19 04:42:54;;;;;;;79.30;73.97;;;;;;;13.52;73.56;100025.43;1741958;82;25493;-51
2023/07/19 04:45:22;;;;;;;81.87;76.17;;;;;;;13.63;73.61;100029.33;1739787;82;25318;-51
2023/07/19 04:47:49;;;;;;;81.78;76.05;;;;;;;13.77;73.68;100030.37;1744821;82;25783;-50
2023/07/19 04:50:16;;;;;;;79.60;74.35;;;;;;;13.88;73.96;100023.37;1745289;82;25320;-52
2023/07/19 04:52:45;;;;;;;78.15;72.92;;;;;;;14.01;73.95;100027.70;1745230;82;29384;-51
2023/07/19 04:55:14;;;;;;;79.07;73.83;;;;;;;14.13;74.16;100025.56;1745318;82;34638;-51
2023/07/19 04:57:42;;;;;;;75.72;70.62;;;;;;;14.28;74.30;100034.95;1745321;81;25360;-50
2023/07/19 05:00:14;;;;;;;9.23;4.90;;;;;;;14.43;74.28;100031.34;1745212;82;25692;-51
2023/07/19 05:02:42;;;;;;;6.45;4.60;;;;;;;14.56;74.31;100031.56;1745286;81;25423;-51
2023/07/19 05:05:12;;;;;;;7.30;4.20;;;;;;;14.70;73.83;100026.56;1748959;80;27849;-52
2023/07/19 05:07:40;;;;;;;6.67;3.90;;;;;;;14.86;72.80;100030.72;1745193;82;25449;-52
2023/07/19 05:10:09;;;;;;;7.65;4.10;;;;;;;15.02;72.29;100028.67;1745220;82;25525;-51
2023/07/19 05:12:37;;;;;;;7.92;4.78;;;;;;;15.17;72.35;100021.13;1745370;82;25614;-52
2023/07/19 05:15:07;;;;;;;9.58;4.40;;;;;;;15.35;72.66;100017.52;1745233;82;25635;-51
2023/07/19 05:17:34;;;;;;;8.15;4.42;;;;;;;15.52;72.10;100015.62;1745278;82;26982;-51
2023/07/19 05:20:02;;;;;;;7.78;4.00;;;;;;;15.71;71.94;100015.73;1745134;81;25592;-51
2023/07/19 05:22:30;;;;;;;8.75;4.42;;;;;;;15.87;71.43;100020.67;1745266;81;25530;-51
2023/07/19 05:24:58;;;;;;;8.28;4.17;;;;;;;16.04;71.66;100019.53;1745481;82;25594;-51
2023/07/19 05:27:25;;;;;;;10.32;4.47;;;;;;;16.23;71.45;100013.94;1745389;81;25512;-52
2023/07/19 05:29:53;;;;;;;10.82;3.35;;;;;;;16.43;70.87;100018.30;1745424;82;27281;-52
2023/07/19 05:32:21;;;;;;;7.85;4.10;;;;;;;16.64;70.62;100011.73;1745280;81;25651;-51
2023/07/19 05:34:48;;;;;;;7.37;3.50;;;;;;;16.87;70.60;100016.53;1745401;81;25513;-52
2023/07/19 05:37:15;;;;;;;9.35;4.33;;;;;;;17.09;69.76;100013.67;1745341;82;25495;-51
2023/07/19 05:39:42;;;;;;;9.93;4.75;;;;;;;17.33;69.31;100019.41;1745426;81;25323;-51
2023/07/19 05:42:10;;;;;;;8.15;4.10;;;;;;;17.59;67.96;100021.47;1745380;82;27857;-51
2023/07/19 05:44:38;;;;;;;7.92;3.72;;;;;;;17.81;67.35;100013.07;1745287;82;25817;-51
2023/07/19 05:47:06;;;;;;;7.65;3.35;;;;;;;18.06;66.37;100018.97;1743859;82;25519;-51
2023/07/19 05:49:33;;;;;;;10.85;3.87;;;;;;;18.32;65.67;100016.07;1743928;82;25618;-51
2023/07/19 05:52:00;;;;;;;7.22;3.60;;;;;;;18.60;64.94;100015.67;1742227;82;25331;-55
2023/07/19 05:54:30;;;;;;;9.98;3.37;;;;;;;18.89;64.19;100020.79;1742227;82;27192;-53
2023/07/19 05:56:58;;;;;;;10.45;3.25;;;;;;;19.17;63.54;100016.22;1742251;82;25298;-52
2023/07/19 05:59:26;;;;;;;15.45;12.82;;;;;;;19.46;62.72;100015.98;1742362;82;25483;-51
2023/07/19 06:01:53;;;;;;;31.27;28.60;;;;;;;19.73;61.71;100012.52;1742109;82;25627;-51
2023/07/19 06:04:21;;;;;;;73.33;68.65;;;;;;;20.00;60.95;100011.00;1742230;82;25376;-52
2023/07/19 06:06:49;;;;;;;74.42;69.82;;;;;;;20.23;59.33;100014.14;1742178;82;27263;-53
2023/07/19 06:09:18;;;;;;;72.20;67.85;;;;;;;20.45;59.19;100011.73;1742368;82;26025;-53
2023/07/19 06:11:46;;;;;;;70.30;66.30;;;;;;;20.68;57.99;100012.08;1742364;82;25539;-52
2023/07/19 06:14:13;;;;;;;72.87;68.70;;;;;;;20.86;57.03;100008.84;1742202;82;25617;-53
2023/07/19 06:16:40;;;;;;;3.05;2.02;;;;;;;21.02;55.43;100009.09;1742184;82;25496;-52
2023/07/19 06:19:07;;;;;;;4.22;1.98;;;;;;;21.17;54.88;100006.59;1742194;82;27200;-52
2023/07/19 06:21:34;;;;;;;2.77;1.82;;;;;;;21.33;54.36;100004.86;1742119;82;25545;-52
2023/07/19 06:24:01;;;;;;;5.20;2.40;;;;;;;21.44;53.03;100003.53;1742171;82;25490;-52
2023/07/19 06:26:29;;;;;;;10.85;2.67;;;;;;;21.53;52.49;99997.68;1742165;82;25634;-53
2023/07/19 06:28:56;;;;;;;5.97;2.70;;;;;;;21.62;51.83;99998.07;1742182;82;25422;-54
2023/07/19 06:31:24;;;;;;;8.08;2.72;;;;;;;21.73;51.75;99996.13;1742135;82;27206;-52
2023/07/19 06:33:52;;;;;;;5.60;2.02;;;;;;;21.86;51.43;99991.61;1742236;82;25461;-55
2023/07/19 06:36:19;;;;;;;4.92;2.33;;;;;;;21.97;50.50;99984.14;1742174;82;25359;-52
2023/07/19 06:38:47;;;;;;;4.08;1.75;;;;;;;22.07;50.05;99988.08;1742193;82;26295;-54
2023/07/19 06:41:15;;;;;;;4.35;1.72;;;;;;;22.17;49.56;99993.56;1742313;82;25523;-52
2023/07/19 06:43:42;;;;;;;6.85;2.72;;;;;;;22.30;48.50;99981.56;1742199;82;28228;-53
2023/07/19 06:46:10;;;;;;;4.35;1.90;;;;;;;22.41;48.09;99981.55;1742120;82;25466;-53
2023/07/19 06:48:37;;;;;;;69.97;65.97;;;;;;;22.52;47.41;99981.52;1745192;82;25521;-52
2023/07/19 06:51:04;;;;;;;68.30;64.40;;;;;;;22.63;46.38;99980.09;1745396;82;25624;-52
2023/07/19 06:53:31;;;;;;;68.07;64.12;;;;;;;22.70;45.90;99978.72;1745430;81;25390;-53
2023/07/19 06:55:59;;;;;;;12.78;11.95;;;;;;;22.79;46.19;99978.29;1745385;82;27186;-59
2023/07/19 06:58:27;;;;;;;4.90;2.23;;;;;;;22.97;44.98;99981.77;1745554;81;25584;-56
2023/07/19 07:00:56;;;;;;;6.00;5.40;;;;;;;23.09;44.63;99979.95;1745372;82;25433;-55
2023/07/19 07:03:24;;;;;;;;;;;;;;;23.26;44.63;99981.65;1747892;82;25633;-55
2023/07/19 07:05:51;;;;;;;7.17;2.27;;;;;;;23.42;44.36;99977.78;1745371;82;25354;-52
2023/07/19 07:08:18;;;;;;;66.22;62.33;;;;;;;23.63;44.21;99977.44;1745290;81;27208;-52
2023/07/19 07:10:45;;;;;;;67.03;63.30;;;;;;;23.77;43.70;99971.83;1745208;82;25299;-53
2023/07/19 07:13:12;;;;;;;68.00;64.03;;;;;;;23.98;42.90;99970.87;1745366;81;25399;-53
2023/07/19 07:15:39;;;;;;;65.30;61.40;;;;;;;24.15;42.26;99969.75;1745283;82;25648;-52
2023/07/19 07:18:06;;;;;;;19.92;18.52;;;;;;;24.31;42.04;99964.43;1749187;80;25547;-52
2023/07/19 07:20:37;;;;;;;6.20;1.90;;;;;;;24.53;42.55;99967.75;1745441;81;27978;-55
2023/07/19 07:23:05;;;;;;;4.75;2.15;;;;;;;24.75;42.27;99971.68;1745176;82;25449;-54
2023/07/19 07:25:35;;;;;;;3.08;1.85;;;;;;;25.06;41.32;99975.83;1745333;82;25472;-52
2023/07/19 07:28:04;;;;;;;5.10;1.92;;;;;;;25.26;39.68;99967.08;1745334;81;25606;-53
2023/07/19 07:30:37;;;;;;;5.75;5.33;;;;;;;25.37;40.06;99958.64;1745331;82;25521;-52
2023/07/19 07:33:06;;;;;;;3.15;2.35;;;;;;;25.60;39.16;99974.48;1745402;81;27253;-53
2023/07/19 07:35:33;;;;;;;67.80;64.12;;;;;;;25.63;38.42;99963.95;1745314;82;25355;-53
2023/07/19 07:38:01;;;;;;;66.80;63.10;;;;;;;25.71;38.62;99961.26;1745332;82;25541;-52
2023/07/19 07:40:28;;;;;;;63.58;59.90;;;;;;;25.86;37.96;99963.20;1745317;82;25729;-53
2023/07/19 07:42:56;;;;;;;65.62;61.63;;;;;;;25.84;36.94;99956.50;1745307;81;25455;-52
2023/07/19 07:45:23;;;;;;;64.25;60.85;;;;;;;25.91;36.89;99952.21;1745239;82;29424;-54
2023/07/19 07:47:50;;;;;;;62.78;59.33;;;;;;;26.10;37.17;99947.95;1745057;80;25617;-54
2023/07/19 07:50:19;;;;;;;61.80;58.60;;;;;;;26.39;37.13;99945.44;1745294;81;25533;-54
2023/07/19 07:52:47;;;;;;;65.32;60.03;;;;;;;26.64;35.93;99957.42;1749094;80;25547;-52
2023/07/19 07:55:15;;;;;;;64.15;60.40;;;;;;;26.77;35.44;99949.25;1745323;82;25315;-55
2023/07/19 07:57:42;;;;;;;63.30;59.83;;;;;;;26.71;34.36;99941.24;1745287;82;27254;-53
2023/07/19 08:00:11;;;;;;;63.17;59.77;;;;;;;26.59;34.47;99940.48;1745185;82;25821;-53
2023/07/19 08:02:38;;;;;;;62.48;59.00;;;;;;;26.56;34.15;99937.17;1749052;80;25527;-54
2023/07/19 08:05:09;;;;;;;64.67;61.18;;;;;;;26.69;34.62;99941.51;1745264;81;25685;-55
2023/07/19 08:07:36;;;;;;;60.83;57.67;;;;;;;26.79;34.17;99938.50;1745359;81;25465;-52
2023/07/19 08:10:06;;;;;;;66.42;62.48;;;;;;;27.10;34.80;99938.22;1745264;82;27258;-52
2023/07/19 08:12:33;;;;;;;60.38;56.98;;;;;;;27.53;34.83;99926.16;1741764;82;25550;-56
2023/07/19 08:15:00;;;;;;;59.77;56.68;;;;;;;23.16;33.82;99132.95;1745564;82;35218;-54
2023/07/19 08:17:28;;;;;;;43.48;41.23;;;;;;;23.87;33.08;99209.42;1745248;82;25626;-52
2023/07/19 08:19:55;;;;;;;59.73;56.13;;;;;;;24.25;31.74;99222.85;1745298;81;25395;-55
2023/07/19 08:22:28;;;;;;;61.42;58.23;;;;;;;28.44;31.96;99903.13;1745331;82;27843;-53
2023/07/19 08:24:56;;;;;;;63.90;60.20;;;;;;;28.55;32.05;99904.22;1745200;81;25287;-53
2023/07/19 08:27:24;;;;;;;60.00;56.63;;;;;;;28.60;31.68;99906.45;1745425;81;25489;-53
2023/07/19 08:29:53;;;;;;;5.67;5.03;;;;;;;28.76;31.69;99907.59;1745302;82;25624;-53
2023/07/19 08:32:20;;;;;;;62.10;58.73;;;;;;;28.81;30.91;99905.65;1749318;80;25528;-53
2023/07/19 08:34:48;;;;;;;61.90;58.60;;;;;;;28.83;30.66;99912.96;1745250;82;27193;-53
2023/07/19 08:37:15;;;;;;;59.50;56.18;;;;;;;28.80;29.73;99899.94;1749004;80;25498;-53
2023/07/19 08:39:42;;;;;;;63.42;59.83;;;;;;;28.68;30.28;99889.72;1745289;82;25312;-55
2023/07/19 08:42:10;;;;;;;60.52;57.08;;;;;;;28.91;30.55;99894.03;1745410;81;25675;-53
2023/07/19 08:44:38;;;;;;;61.15;58.02;;;;;;;29.21;30.67;99893.48;1745261;82;25480;-54
2023/07/19 08:47:11;;;;;;;61.25;57.98;;;;;;;29.54;29.73;99889.05;1745149;82;28014;-53
2023/07/19 08:49:42;;;;;;;4.45;4.25;;;;;;;27.28;29.37;99531.74;1742067;82;25480;-53
2023/07/19 08:52:11;;;;;;;8.23;7.85;;;;;;;;;;1742132;82;25373;-54
2023/07/19 08:54:38;;;;;;;5.80;5.60;;;;;;;;;;1741837;82;25624;-54
2023/07/19 08:57:06;;;;;;;60.38;57.17;;;;;;;;;;1742115;81;25481;-54
2023/07/19 08:59:34;;;;;;;;;;;;;;;;;;1755059;81;27203;-53
2023/07/19 09:02:02;;;;;;;;;;;;;;;;;;1755004;81;25311;-55
2023/07/19 09:04:32;;;;;;;40.63;38.30;;;;;;;;;;1752503;81;25467;-53
2023/07/19 09:07:05;;;;;;;57.30;54.20;;;;;;;;;;1752499;81;25643;-52
2023/07/19 09:09:32;;;;;;;58.85;55.75;;;;;;;;;;1752551;81;25505;-53
2023/07/19 09:11:59;;;;;;;39.92;37.65;;;;;;;;;;1752555;81;27252;-54
2023/07/19 09:14:35;;;;;;;58.25;54.80;;;;;;;;;;1752337;81;25479;-54
2023/07/19 09:17:06;;;;;;;44.53;41.85;;;;;;;;;;1742154;82;25455;-52
2023/07/19 09:19:36;;;;;;;68.33;64.27;;;;;;;;;;1742039;82;25600;-52
2023/07/19 09:22:04;;;;;;;59.18;55.88;;;;;;;;;;1742131;82;25333;-52
2023/07/19 09:24:32;;;;;;;6.58;6.28;;;;;;;;;;1719362;82;27000;-53
2023/07/19 09:26:58;;;;;;;3.35;3.25;;;;;;;;;;1713635;82;25614;-53
2023/07/19 09:29:30;;;;;;;3.33;3.23;;;;;;;;;;1752510;81;26888;-52
2023/07/19 09:32:03;;;;;;;87.02;81.47;;;;;;;;;;1752452;81;25612;-52
2023/07/19 09:34:37;;;;;;;7.55;7.25;;;;;;;;;;1742144;82;25361;-54
2023/07/19 09:37:06;;;;;;;8.13;7.75;;;;;;;;;;1719262;82;27191;-53
2023/07/19 09:39:37;;;;;;;5.72;5.53;;;;;;;;;;1742025;82;25470;-54
2023/07/19 09:42:08;;;;;;;9.15;8.75;;;;;;;;;;1742120;82;25369;-52
